Finest — WCW8374 — position and weather

sailwx.info

Track history (hours):
 
Tides and Currents Weather Stations Pressure Air Temp Water Temp Dewpoint Dewpoint Depression Visibility Wind Speed Wind Dir Waves Ship Positions

Finest

Owner: NEW YORK FAST FERRY SERVICES INC, MAMARONECK, NY. More information available from US FCC via Universal Licensing System and Coast Guard Vessel Documentation Center.

Last reported at 2014-Oct-01 22:33 UTC. Time now 2014-Oct-02 02:38 UTC.
Position N 40°36' W 074°03'.

Length 38 m.

Type: High speed craft. MMSI: 366990590.

Date/timePositionNaut miles runAvg speedWind from/ knotsBaromVisibWave heightAir tempDewpointWater temp
2014-Oct-01 22:33N 40°36' W 074°03'5 4.6
2014-Oct-01 21:31N 40°31' W 074°04'1111.3
2014-Oct-01 20:33N 40°42' W 074°01'5 4.0
2014-Oct-01 19:25N 40°46' W 074°01'0 0.0
2014-Oct-01 18:26N 40°46' W 074°01'0 0.0
2014-Oct-01 16:30N 40°46' W 074°01'0 0.0
2014-Oct-01 14:13N 40°46' W 074°01'0 0.0
2014-Oct-01 13:27N 40°46' W 074°01'7 8.4
2014-Oct-01 12:33N 40°39' W 074°02'2 2.4
2014-Oct-01 11:34N 40°37' W 074°03'1 0.0
2014-Sep-30 22:33N 40°36' W 074°03'4 4.1
2014-Sep-30 21:33N 40°32' W 074°04'9 9.4
2014-Sep-30 20:34N 40°41' W 074°01'3 0.6
2014-Sep-30 15:03N 40°39' W 074°04'8 4.7
2014-Sep-30 13:24N 40°46' W 074°01'7 8.6
2014-Sep-30 12:34N 40°39' W 074°02'2 2.3
2014-Sep-30 11:34N 40°37' W 074°03'1110.8
2014-Sep-30 10:33N 40°26' W 074°05'10 0.8
2014-Sep-29 22:34N 40°36' W 074°03'6 6.0
2014-Sep-29 21:34N 40°30' W 074°04'1211.5
2014-Sep-29 20:34N 40°41' W 074°01'4 3.0
2014-Sep-29 19:05N 40°46' W 074°00'1 1.4
2014-Sep-29 18:33N 40°46' W 074°01'0 0.0
2014-Sep-29 17:33N 40°46' W 074°01'0 0.0
2014-Sep-29 16:33N 40°46' W 074°01'0 0.0
2014-Sep-29 15:33N 40°46' W 074°01'1 0.7
2014-Sep-29 14:33N 40°46' W 074°01'2019.9
2014-Sep-29 13:34N 40°26' W 074°05'1212.1
2014-Sep-29 12:34N 40°38' W 074°03'1 1.5
2014-Sep-29 11:34N 40°37' W 074°03'1110.6
2014-Sep-29 10:33N 40°26' W 074°05'0 0.1
2014-Sep-29 09:33N 40°26' W 074°05'  
2014-Sep-27 01:08N 40°26' W 074°05'711.2
2014-Sep-27 00:33N 40°23' W 073°57'3232.3
2014-Sep-26 23:33N 39°51' W 074°03'  
2014-Sep-24 18:16N 39°29' W 074°14'1824.9
2014-Sep-24 17:33N 39°45' W 074°04'5829.1
2014-Sep-24 15:33N 40°43' W 074°01'3 2.5
2014-Sep-24 14:21N 40°46' W 074°01'1 0.8
2014-Sep-24 13:12N 40°45' W 074°01'710.6
2014-Sep-24 12:34N 40°39' W 074°02'2 2.1
2014-Sep-24 11:33N 40°37' W 074°03'1110.3
2014-Sep-24 10:32N 40°26' W 074°05'10 0.9
2014-Sep-23 22:33N 40°36' W 074°03'6 5.7
2014-Sep-23 21:30N 40°30' W 074°04'1111.8
2014-Sep-23 20:34N 40°41' W 074°01'5 0.7
2014-Sep-23 13:23N 40°46' W 074°01'7 9.0
2014-Sep-23 12:34N 40°39' W 074°02'2 1.8
2014-Sep-23 11:33N 40°37' W 074°03'1 0.1
2014-Sep-22 22:34N 40°38' W 074°03'3 1.7
2014-Sep-22 20:34N 40°41' W 074°01'5 0.7
2014-Sep-22 13:25N 40°46' W 074°01'8 9.0
2014-Sep-22 12:34N 40°39' W 074°02'2 2.2
2014-Sep-22 11:34N 40°36' W 074°03'1010.3
2014-Sep-22 10:32N 40°26' W 074°05'  
Track history (hours):
 
Tides and Currents Weather Stations Pressure Air Temp Water Temp Dewpoint Dewpoint Depression Visibility Wind Speed Wind Dir Waves Ship Positions

Finest

Owner: NEW YORK FAST FERRY SERVICES INC, MAMARONECK, NY. More information available from US FCC via Universal Licensing System and Coast Guard Vessel Documentation Center.

Last reported at 2014-Oct-01 22:33 UTC. Time now 2014-Oct-02 02:38 UTC.
Position N 40°36' W 074°03'.

Length 38 m.

Type: High speed craft. MMSI: 366990590.

Date/timePositionNaut miles runAvg speedWind from/ knotsBaromVisibWave heightAir tempDewpointWater temp
2014-Oct-01 22:33N 40°36' W 074°03'5 4.6
2014-Oct-01 21:31N 40°31' W 074°04'1111.3
2014-Oct-01 20:33N 40°42' W 074°01'5 4.0
2014-Oct-01 19:25N 40°46' W 074°01'0 0.0
2014-Oct-01 18:26N 40°46' W 074°01'0 0.0
2014-Oct-01 16:30N 40°46' W 074°01'0 0.0
2014-Oct-01 14:13N 40°46' W 074°01'0 0.0
2014-Oct-01 13:27N 40°46' W 074°01'7 8.4
2014-Oct-01 12:33N 40°39' W 074°02'2 2.4
2014-Oct-01 11:34N 40°37' W 074°03'1 0.0
2014-Sep-30 22:33N 40°36' W 074°03'4 4.1
2014-Sep-30 21:33N 40°32' W 074°04'9 9.4
2014-Sep-30 20:34N 40°41' W 074°01'3 0.6
2014-Sep-30 15:03N 40°39' W 074°04'8 4.7
2014-Sep-30 13:24N 40°46' W 074°01'7 8.6
2014-Sep-30 12:34N 40°39' W 074°02'2 2.3
2014-Sep-30 11:34N 40°37' W 074°03'1110.8
2014-Sep-30 10:33N 40°26' W 074°05'10 0.8
2014-Sep-29 22:34N 40°36' W 074°03'6 6.0
2014-Sep-29 21:34N 40°30' W 074°04'1211.5
2014-Sep-29 20:34N 40°41' W 074°01'4 3.0
2014-Sep-29 19:05N 40°46' W 074°00'1 1.4
2014-Sep-29 18:33N 40°46' W 074°01'0 0.0
2014-Sep-29 17:33N 40°46' W 074°01'0 0.0
2014-Sep-29 16:33N 40°46' W 074°01'0 0.0
2014-Sep-29 15:33N 40°46' W 074°01'1 0.7
2014-Sep-29 14:33N 40°46' W 074°01'2019.9
2014-Sep-29 13:34N 40°26' W 074°05'1212.1
2014-Sep-29 12:34N 40°38' W 074°03'1 1.5
2014-Sep-29 11:34N 40°37' W 074°03'1110.6
2014-Sep-29 10:33N 40°26' W 074°05'0 0.1
2014-Sep-29 09:33N 40°26' W 074°05'  
2014-Sep-27 01:08N 40°26' W 074°05'711.2
2014-Sep-27 00:33N 40°23' W 073°57'3232.3
2014-Sep-26 23:33N 39°51' W 074°03'  
2014-Sep-24 18:16N 39°29' W 074°14'1824.9
2014-Sep-24 17:33N 39°45' W 074°04'5829.1
2014-Sep-24 15:33N 40°43' W 074°01'3 2.5
2014-Sep-24 14:21N 40°46' W 074°01'1 0.8
2014-Sep-24 13:12N 40°45' W 074°01'710.6
2014-Sep-24 12:34N 40°39' W 074°02'2 2.1
2014-Sep-24 11:33N 40°37' W 074°03'1110.3
2014-Sep-24 10:32N 40°26' W 074°05'10 0.9
2014-Sep-23 22:33N 40°36' W 074°03'6 5.7
2014-Sep-23 21:30N 40°30' W 074°04'1111.8
2014-Sep-23 20:34N 40°41' W 074°01'5 0.7
2014-Sep-23 13:23N 40°46' W 074°01'7 9.0
2014-Sep-23 12:34N 40°39' W 074°02'2 1.8
2014-Sep-23 11:33N 40°37' W 074°03'1 0.1
2014-Sep-22 22:34N 40°38' W 074°03'3 1.7
2014-Sep-22 20:34N 40°41' W 074°01'5 0.7
2014-Sep-22 13:25N 40°46' W 074°01'8 9.0
2014-Sep-22 12:34N 40°39' W 074°02'2 2.2
2014-Sep-22 11:34N 40°36' W 074°03'1010.3
2014-Sep-22 10:32N 40°26' W 074°05'  

Dump ship's entire track history